createdAt,value
2022-10-23T00:01:49.078Z,95.35
2022-10-23T00:04:07.679Z,95.62
2022-10-23T00:06:24.659Z,95.68
2022-10-23T00:08:42.703Z,95.72
2022-10-23T00:10:59.683Z,95.76
2022-10-23T00:13:17.708Z,95.26
2022-10-23T00:15:34.738Z,95.77
2022-10-23T00:17:51.908Z,95.59
2022-10-23T00:20:09.003Z,96.50
2022-10-23T00:22:26.680Z,95.52
2022-10-23T00:24:44.821Z,95.76
2022-10-23T00:27:01.714Z,96.01
2022-10-23T00:29:20.547Z,96.31
2022-10-23T00:31:37.847Z,96.55
2022-10-23T00:33:55.159Z,96.23
2022-10-23T00:36:12.239Z,95.33
2022-10-23T00:38:29.229Z,95.39
2022-10-23T00:43:05.930Z,95.95
2022-10-23T00:45:23.039Z,95.90
2022-10-23T00:47:40.344Z,95.77
2022-10-23T00:49:57.272Z,95.53
2022-10-23T00:52:15.797Z,95.56
2022-10-23T00:54:33.847Z,95.33
2022-10-23T00:56:51.880Z,96.26
2022-10-23T00:59:09.552Z,96.08
2022-10-23T01:01:27.163Z,95.34
2022-10-23T01:03:45.207Z,95.38
2022-10-23T01:06:02.315Z,95.57
2022-10-23T01:08:19.343Z,95.96
2022-10-23T01:10:39.387Z,95.63
2022-10-23T01:12:56.801Z,95.47
2022-10-23T01:15:13.929Z,95.80
2022-10-23T01:17:31.108Z,95.54
2022-10-23T01:19:48.494Z,95.54
2022-10-23T01:22:05.481Z,96.24
2022-10-23T01:24:23.486Z,95.92
2022-10-23T01:26:41.330Z,95.71
2022-10-23T01:28:58.697Z,96.55
2022-10-23T01:31:16.008Z,95.23
2022-10-23T01:33:33.361Z,95.14
2022-10-23T01:35:50.307Z,95.22
2022-10-23T01:38:08.338Z,95.79
2022-10-23T01:40:25.261Z,95.90
2022-10-23T01:42:45.543Z,96.42
2022-10-23T01:45:04.029Z,95.50
2022-10-23T01:47:22.625Z,95.41
2022-10-23T01:49:43.098Z,95.33
2022-10-23T01:52:00.149Z,95.30
2022-10-23T01:54:17.178Z,94.84
2022-10-23T01:56:34.604Z,96.00
2022-10-23T01:58:51.595Z,95.05
2022-10-23T02:01:08.930Z,95.49
2022-10-23T02:03:26.434Z,95.34
2022-10-23T02:05:43.469Z,95.35
2022-10-23T02:08:00.489Z,95.43
2022-10-23T02:10:18.459Z,95.90
2022-10-23T02:12:35.913Z,96.00
2022-10-23T02:14:52.939Z,96.24
2022-10-23T02:17:10.355Z,95.97
2022-10-23T02:19:27.749Z,95.61
2022-10-23T02:21:44.804Z,95.82
2022-10-23T02:24:02.689Z,95.74
2022-10-23T02:26:19.968Z,96.17
2022-10-23T02:28:36.920Z,96.14
2022-10-23T02:30:54.229Z,96.51
2022-10-23T02:33:12.186Z,96.75
2022-10-23T02:35:29.313Z,96.69
2022-10-23T02:37:46.274Z,96.25
2022-10-23T02:40:03.603Z,95.93
2022-10-23T02:42:22.733Z,96.26
2022-10-23T02:44:39.706Z,96.13
2022-10-23T02:46:56.694Z,95.91
2022-10-23T02:49:13.650Z,95.84
2022-10-23T02:51:31.033Z,95.15
2022-10-23T02:53:49.019Z,96.04
2022-10-23T02:56:09.055Z,96.58
2022-10-23T02:58:25.996Z,95.93
2022-10-23T03:00:43.073Z,96.08
2022-10-23T03:02:59.992Z,96.23
2022-10-23T03:05:17.261Z,96.19
2022-10-23T03:07:35.004Z,96.55
2022-10-23T03:09:53.285Z,96.69
2022-10-23T03:12:10.382Z,96.72
2022-10-23T03:14:28.350Z,96.58
2022-10-23T03:16:45.937Z,96.67
2022-10-23T03:19:05.993Z,95.89
2022-10-23T03:21:23.072Z,95.79
2022-10-23T03:23:40.298Z,96.91
2022-10-23T03:25:57.151Z,96.19
2022-10-23T03:28:16.586Z,96.43
2022-10-23T03:30:33.889Z,97.29
2022-10-23T03:32:50.948Z,96.97
2022-10-23T03:35:08.908Z,96.99
2022-10-23T03:37:26.007Z,97.12
2022-10-23T03:39:45.906Z,97.01
2022-10-23T03:42:04.221Z,96.44
2022-10-23T03:44:21.243Z,96.38
2022-10-23T03:46:38.590Z,96.80
2022-10-23T03:48:56.526Z,96.38
2022-10-23T03:51:13.789Z,96.02
2022-10-23T03:53:30.908Z,95.61
2022-10-23T03:55:48.246Z,95.76
2022-10-23T03:58:05.756Z,95.43
2022-10-23T04:00:22.769Z,95.72
2022-10-23T04:02:39.854Z,95.44
2022-10-23T04:04:58.993Z,95.94
2022-10-23T04:07:16.110Z,95.77
2022-10-23T04:09:33.069Z,95.71
2022-10-23T04:11:49.999Z,96.38
2022-10-23T04:14:06.891Z,95.87
2022-10-23T04:16:24.574Z,96.65
2022-10-23T04:18:41.540Z,95.89
2022-10-23T04:20:59.725Z,95.87
2022-10-23T04:23:17.463Z,96.18
2022-10-23T04:25:34.460Z,96.34
2022-10-23T04:27:51.784Z,95.70
2022-10-23T04:30:08.825Z,96.28
2022-10-23T04:32:26.914Z,95.74
2022-10-23T04:34:44.384Z,95.67
2022-10-23T04:37:01.512Z,95.71
2022-10-23T04:39:18.530Z,94.93
2022-10-23T04:41:35.574Z,95.58
2022-10-23T04:43:52.661Z,95.54
2022-10-23T04:46:09.741Z,95.90
2022-10-23T04:48:28.464Z,96.15
2022-10-23T04:53:09.308Z,95.33
2022-10-23T04:55:26.625Z,96.05
2022-10-23T04:57:45.084Z,95.62
2022-10-23T05:00:02.332Z,94.87
2022-10-23T05:02:19.642Z,95.53
2022-10-23T05:04:37.775Z,95.11
2022-10-23T05:06:54.940Z,95.58
2022-10-23T05:09:12.968Z,95.33
2022-10-23T05:11:30.242Z,95.66
2022-10-23T05:13:47.541Z,95.84
2022-10-23T05:16:04.820Z,95.36
2022-10-23T05:18:21.908Z,95.80
2022-10-23T05:20:39.872Z,95.66
2022-10-23T05:22:57.091Z,95.77
2022-10-23T05:25:14.461Z,96.10
2022-10-23T05:27:31.444Z,95.80
2022-10-23T05:29:48.466Z,96.02
2022-10-23T05:32:05.852Z,96.31
2022-10-23T05:34:33.560Z,95.94
2022-10-23T05:36:50.526Z,95.75
2022-10-23T05:39:08.743Z,95.79
2022-10-23T05:41:25.661Z,96.66
2022-10-23T05:43:42.910Z,96.46
2022-10-23T05:46:00.344Z,96.51
2022-10-23T05:48:30.060Z,95.63
2022-10-23T05:50:51.305Z,95.80
2022-10-23T05:53:08.361Z,95.52
2022-10-23T05:55:25.160Z,95.07
2022-10-23T05:57:42.521Z,95.91
2022-10-23T06:00:00.025Z,95.47
2022-10-23T06:02:17.123Z,96.31
2022-10-23T06:04:34.351Z,96.97
2022-10-23T06:06:51.614Z,97.54
2022-10-23T06:09:08.866Z,97.82
2022-10-23T06:11:25.839Z,97.43
2022-10-23T06:13:44.165Z,97.33
2022-10-23T06:16:01.305Z,97.50
2022-10-23T06:18:18.613Z,97.44
2022-10-23T06:20:36.552Z,97.58
2022-10-23T06:22:54.491Z,97.34
2022-10-23T06:25:11.454Z,97.27
2022-10-23T06:27:29.492Z,97.36
2022-10-23T06:29:46.829Z,97.83
2022-10-23T06:32:03.780Z,97.22
2022-10-23T06:34:21.114Z,98.23
2022-10-23T06:36:39.034Z,98.05
2022-10-23T06:38:56.134Z,98.03
2022-10-23T06:41:14.203Z,97.59
2022-10-23T06:43:31.210Z,98.23
2022-10-23T06:45:48.770Z,98.09
2022-10-23T06:48:05.808Z,98.26
2022-10-23T06:50:23.251Z,98.24
2022-10-23T06:52:46.942Z,98.36
2022-10-23T06:55:04.590Z,98.61
2022-10-23T06:57:22.369Z,98.91
2022-10-23T06:59:39.764Z,98.88
2022-10-23T07:01:56.758Z,98.98
2022-10-23T07:04:13.855Z,98.69
2022-10-23T07:06:32.259Z,98.65
2022-10-23T07:08:49.287Z,99.05
2022-10-23T07:11:06.269Z,99.55
2022-10-23T07:13:23.242Z,99.28
2022-10-23T07:15:40.565Z,99.41
2022-10-23T07:17:57.650Z,99.45
2022-10-23T07:20:14.730Z,99.61
2022-10-23T07:22:31.691Z,99.41
2022-10-23T07:24:48.907Z,99.41
2022-10-23T07:27:05.974Z,99.50
2022-10-23T07:29:24.164Z,99.08
2022-10-23T07:31:41.399Z,99.25
2022-10-23T07:33:59.308Z,99.49
2022-10-23T07:36:17.626Z,99.79
2022-10-23T07:38:35.524Z,99.32
2022-10-23T07:40:53.599Z,99.40
2022-10-23T07:43:10.519Z,99.34
2022-10-23T07:45:27.763Z,99.57
2022-10-23T07:47:46.164Z,99.48
2022-10-23T07:50:03.307Z,98.88
2022-10-23T07:52:20.301Z,98.40
2022-10-23T07:54:37.245Z,98.79
2022-10-23T07:56:55.262Z,99.08
2022-10-23T07:59:12.706Z,99.06
2022-10-23T08:01:29.682Z,98.82
2022-10-23T08:03:46.708Z,98.76
2022-10-23T08:06:04.013Z,98.12
2022-10-23T08:08:21.282Z,98.46
2022-10-23T08:10:39.206Z,98.26
2022-10-23T08:12:56.590Z,97.70
2022-10-23T08:15:14.559Z,97.47
2022-10-23T08:17:31.418Z,96.89
2022-10-23T08:19:48.404Z,97.36
2022-10-23T08:22:05.382Z,97.76
2022-10-23T08:24:22.678Z,98.32
2022-10-23T08:26:40.108Z,97.10
2022-10-23T08:28:57.107Z,97.28
2022-10-23T08:31:14.355Z,96.62
2022-10-23T08:33:31.294Z,96.34
2022-10-23T08:35:48.260Z,96.31
2022-10-23T08:38:05.254Z,96.82
2022-10-23T08:40:22.466Z,97.08
2022-10-23T08:42:39.703Z,96.13
2022-10-23T08:44:56.656Z,95.80
2022-10-23T08:47:13.690Z,95.88
2022-10-23T08:49:31.068Z,96.76
2022-10-23T08:51:48.263Z,96.29
2022-10-23T08:54:05.195Z,96.36
2022-10-23T08:56:23.360Z,97.25
2022-10-23T08:58:40.282Z,97.30
2022-10-23T09:00:57.430Z,96.21
2022-10-23T09:03:14.366Z,97.48
2022-10-23T09:05:31.613Z,97.15
2022-10-23T09:07:48.863Z,97.24
2022-10-23T09:10:05.766Z,96.34
2022-10-23T09:12:22.842Z,96.56
2022-10-23T09:14:40.154Z,95.56
2022-10-23T09:16:57.047Z,95.29
2022-10-23T09:19:14.356Z,96.11
2022-10-23T09:21:31.315Z,94.81
2022-10-23T09:23:48.333Z,94.43
2022-10-23T09:26:08.244Z,95.91
2022-10-23T09:28:25.497Z,93.68
2022-10-23T09:30:42.490Z,93.66
2022-10-23T09:32:59.705Z,93.78
2022-10-23T09:35:17.974Z,93.75
2022-10-23T09:37:35.206Z,93.98
2022-10-23T09:39:52.082Z,94.72
2022-10-23T09:42:09.087Z,94.10
2022-10-23T09:44:26.286Z,94.34
2022-10-23T09:46:43.310Z,95.52
2022-10-23T09:49:02.256Z,93.84
2022-10-23T09:51:22.281Z,93.73
2022-10-23T09:53:39.145Z,94.74
2022-10-23T09:55:56.134Z,93.87
2022-10-23T09:58:13.089Z,94.04
2022-10-23T10:00:30.349Z,95.41
2022-10-23T10:02:47.317Z,94.64
2022-10-23T10:05:04.411Z,95.18
2022-10-23T10:07:22.735Z,94.81
2022-10-23T10:09:39.727Z,93.15
2022-10-23T10:11:58.121Z,95.07
2022-10-23T10:14:15.383Z,93.30
2022-10-23T10:16:34.109Z,92.58
2022-10-23T10:18:51.543Z,92.88
2022-10-23T10:21:08.613Z,92.71
2022-10-23T10:23:25.651Z,93.89
2022-10-23T10:25:42.577Z,93.63
2022-10-23T10:27:59.448Z,93.59
2022-10-23T10:30:16.921Z,92.33
2022-10-23T10:32:34.022Z,92.13
2022-10-23T10:34:53.469Z,92.81
2022-10-23T10:37:10.769Z,92.76
2022-10-23T10:39:27.864Z,91.85
2022-10-23T10:41:45.273Z,90.51
2022-10-23T10:44:02.300Z,90.97
2022-10-23T10:46:19.758Z,90.26
2022-10-23T10:48:37.009Z,89.76
2022-10-23T10:50:54.323Z,89.01
2022-10-23T10:53:11.207Z,88.60
2022-10-23T10:55:29.227Z,88.91
2022-10-23T10:57:46.626Z,88.23
2022-10-23T11:00:03.812Z,89.08
2022-10-23T11:02:21.039Z,88.95
2022-10-23T11:04:38.292Z,88.34
2022-10-23T11:06:56.413Z,87.05
2022-10-23T11:09:20.417Z,86.10
2022-10-23T11:11:37.921Z,84.43
2022-10-23T11:13:55.018Z,83.44
2022-10-23T11:16:12.218Z,81.87
2022-10-23T11:18:30.452Z,80.41
2022-10-23T11:20:47.750Z,79.01
2022-10-23T11:23:04.739Z,78.73
2022-10-23T11:25:22.751Z,77.06
2022-10-23T11:27:41.931Z,78.67
2022-10-23T11:30:00.395Z,78.57
2022-10-23T11:32:17.413Z,78.72
2022-10-23T11:34:34.505Z,79.03
2022-10-23T11:36:51.437Z,80.25
2022-10-23T11:39:08.743Z,78.16
2022-10-23T11:41:27.037Z,79.10
2022-10-23T11:43:44.417Z,77.70
2022-10-23T11:46:01.377Z,78.91
2022-10-23T11:48:18.601Z,77.41
2022-10-23T11:50:36.651Z,75.73
2022-10-23T11:53:09.415Z,76.51
2022-10-23T11:55:30.523Z,76.37
2022-10-23T11:57:47.504Z,75.01
2022-10-23T12:00:04.799Z,75.33
2022-10-23T12:02:21.787Z,74.58
2022-10-23T12:04:38.791Z,74.53
2022-10-23T12:06:55.712Z,75.35
2022-10-23T12:09:13.014Z,75.25
2022-10-23T12:11:29.947Z,73.07
2022-10-23T12:13:47.921Z,72.64
2022-10-23T12:16:04.868Z,73.36
2022-10-23T12:18:23.178Z,72.89
2022-10-23T12:20:41.460Z,73.07
2022-10-23T12:22:59.466Z,74.00
2022-10-23T12:25:16.803Z,73.13
2022-10-23T12:27:33.741Z,73.89
2022-10-23T12:29:50.625Z,73.90
2022-10-23T12:32:07.645Z,73.43
2022-10-23T12:34:24.659Z,73.08
2022-10-23T12:36:44.433Z,74.23
2022-10-23T12:39:01.395Z,73.26
2022-10-23T12:41:19.090Z,73.88
2022-10-23T12:43:36.331Z,74.58
2022-10-23T12:45:53.573Z,75.13
2022-10-23T12:48:10.599Z,74.46
2022-10-23T12:50:27.530Z,76.16
2022-10-23T12:52:45.063Z,76.39
2022-10-23T12:55:03.282Z,75.73
2022-10-23T12:57:20.279Z,75.58
2022-10-23T12:59:37.535Z,75.88
2022-10-23T13:01:55.994Z,76.00
2022-10-23T13:04:15.866Z,76.53
2022-10-23T13:06:33.183Z,75.35
2022-10-23T13:08:50.405Z,76.19
2022-10-23T13:11:07.661Z,76.64
2022-10-23T13:13:24.551Z,75.65
2022-10-23T13:15:41.560Z,75.96
2022-10-23T13:17:58.472Z,75.36
2022-10-23T13:20:15.499Z,75.45
2022-10-23T13:22:32.669Z,75.00
2022-10-23T13:24:49.686Z,75.28
2022-10-23T13:27:08.021Z,76.32
2022-10-23T13:31:43.286Z,77.22
2022-10-23T13:34:02.730Z,77.42
2022-10-23T13:36:24.565Z,76.48
2022-10-23T13:38:43.002Z,76.42
2022-10-23T13:40:59.979Z,77.19
2022-10-23T13:43:17.147Z,76.66
2022-10-23T13:45:34.382Z,77.39
2022-10-23T13:47:51.603Z,76.34
2022-10-23T13:50:08.517Z,77.94
2022-10-23T13:52:25.507Z,77.59
2022-10-23T13:54:43.590Z,78.43
2022-10-23T13:57:00.683Z,79.88
2022-10-23T13:59:20.052Z,80.13
2022-10-23T14:01:37.208Z,80.28
2022-10-23T14:03:54.646Z,79.75
2022-10-23T14:06:11.657Z,79.27
2022-10-23T14:08:28.915Z,80.19
2022-10-23T14:10:46.212Z,80.32
2022-10-23T14:13:03.195Z,80.25
2022-10-23T14:15:20.173Z,79.91
2022-10-23T14:17:37.135Z,77.25
2022-10-23T14:19:54.218Z,79.70
2022-10-23T14:22:11.203Z,80.32
2022-10-23T14:24:28.421Z,78.85
2022-10-23T14:26:45.425Z,79.97
2022-10-23T14:29:06.907Z,79.63
2022-10-23T14:31:28.523Z,78.97
2022-10-23T14:33:46.479Z,79.10
2022-10-23T14:36:03.458Z,80.68
2022-10-23T14:38:21.853Z,80.06
2022-10-23T14:40:40.904Z,80.54
2022-10-23T14:43:00.530Z,80.35
2022-10-23T14:45:17.579Z,81.47
2022-10-23T14:47:34.805Z,82.22
2022-10-23T14:49:52.737Z,80.67
2022-10-23T14:52:11.222Z,80.76
2022-10-23T14:54:28.458Z,81.43
2022-10-23T14:56:45.670Z,82.95
2022-10-23T14:59:03.824Z,83.28
2022-10-23T15:01:20.952Z,81.37
2022-10-23T15:03:38.297Z,81.39
2022-10-23T15:05:55.591Z,81.24
2022-10-23T15:08:12.570Z,80.93
2022-10-23T15:10:29.668Z,81.64
2022-10-23T15:12:46.987Z,82.15
2022-10-23T15:15:04.281Z,82.34
2022-10-23T15:17:21.374Z,82.36
2022-10-23T15:19:39.556Z,84.19
2022-10-23T15:21:58.698Z,82.89
2022-10-23T15:24:15.715Z,84.35
2022-10-23T15:26:32.774Z,82.57
2022-10-23T15:28:50.042Z,83.43
2022-10-23T15:31:07.294Z,83.83
2022-10-23T15:33:24.308Z,85.80
2022-10-23T15:35:42.267Z,84.99
2022-10-23T15:37:59.305Z,86.39
2022-10-23T15:40:17.499Z,87.25
2022-10-23T15:42:34.381Z,86.18
2022-10-23T15:44:52.613Z,87.16
2022-10-23T15:47:09.852Z,87.58
2022-10-23T15:49:26.765Z,88.35
2022-10-23T15:51:44.775Z,88.51
2022-10-23T15:54:01.783Z,87.82
2022-10-23T15:56:19.796Z,89.88
2022-10-23T15:58:36.851Z,89.50
2022-10-23T16:00:54.071Z,90.33
2022-10-23T16:03:11.430Z,91.14
2022-10-23T16:05:28.637Z,91.05
2022-10-23T16:07:46.880Z,91.33
2022-10-23T16:10:03.833Z,90.71
2022-10-23T16:12:20.877Z,91.50
2022-10-23T16:14:39.109Z,91.04
2022-10-23T16:16:56.143Z,91.47
2022-10-23T16:19:13.161Z,91.86
2022-10-23T16:21:30.354Z,92.15
2022-10-23T16:23:47.277Z,91.39
2022-10-23T16:26:04.669Z,92.16
2022-10-23T16:28:21.956Z,92.31
2022-10-23T16:30:39.988Z,92.61
2022-10-23T16:32:57.004Z,92.61
2022-10-23T16:35:14.401Z,92.49
2022-10-23T16:37:31.291Z,91.57
2022-10-23T16:39:48.554Z,91.99
2022-10-23T16:42:05.911Z,92.08
2022-10-23T16:44:22.934Z,93.21
2022-10-23T16:46:39.956Z,92.59
2022-10-23T16:48:56.873Z,92.57
2022-10-23T16:51:14.613Z,92.87
2022-10-23T16:53:31.869Z,92.97
2022-10-23T16:55:49.218Z,93.81
2022-10-23T16:58:07.495Z,94.64
2022-10-23T17:00:24.782Z,94.24
2022-10-23T17:02:42.063Z,94.85
2022-10-23T17:05:00.104Z,94.71
2022-10-23T17:07:17.034Z,94.88
2022-10-23T17:09:34.026Z,95.78
2022-10-23T17:11:51.260Z,95.34
2022-10-23T17:14:08.245Z,95.45
2022-10-23T17:16:26.217Z,96.53
2022-10-23T17:18:44.018Z,96.71
2022-10-23T17:21:01.166Z,96.42
2022-10-23T17:23:18.424Z,97.47
2022-10-23T17:25:36.638Z,96.82
2022-10-23T17:27:53.678Z,97.11
2022-10-23T17:30:12.780Z,97.32
2022-10-23T17:32:30.151Z,97.74
2022-10-23T17:34:47.391Z,97.91
2022-10-23T17:37:04.685Z,97.99
2022-10-23T17:39:21.725Z,97.61
2022-10-23T17:41:40.008Z,98.61
2022-10-23T17:43:56.935Z,98.64
2022-10-23T17:46:14.101Z,99.07
2022-10-23T17:48:31.314Z,99.12
2022-10-23T17:50:48.169Z,99.30
2022-10-23T17:53:06.251Z,99.64
2022-10-23T17:55:23.539Z,98.81
2022-10-23T17:57:40.962Z,99.09
2022-10-23T17:59:58.434Z,99.17
2022-10-23T18:02:16.815Z,98.97
2022-10-23T18:04:35.098Z,99.22
2022-10-23T18:06:52.057Z,99.02
2022-10-23T18:09:09.273Z,98.75
2022-10-23T18:11:26.166Z,98.90
2022-10-23T18:13:44.021Z,98.68
2022-10-23T18:16:01.003Z,97.78
2022-10-23T18:18:18.295Z,98.65
2022-10-23T18:20:35.283Z,98.01
2022-10-23T18:22:52.578Z,98.24
2022-10-23T18:25:09.825Z,98.15
2022-10-23T18:27:26.860Z,96.88
2022-10-23T18:29:44.081Z,96.35
2022-10-23T18:32:01.070Z,96.59
2022-10-23T18:34:18.020Z,96.61
2022-10-23T18:36:34.919Z,96.23
2022-10-23T18:38:52.261Z,95.99
2022-10-23T18:41:09.365Z,96.18
2022-10-23T18:43:42.642Z,96.52
2022-10-23T18:46:01.455Z,95.87
2022-10-23T18:48:18.441Z,96.13
2022-10-23T18:50:36.762Z,97.14
2022-10-23T18:52:54.014Z,96.60
2022-10-23T18:55:12.304Z,97.60
2022-10-23T18:57:29.503Z,97.16
2022-10-23T18:59:46.703Z,97.03
2022-10-23T19:02:03.904Z,97.33
2022-10-23T19:04:22.096Z,97.48
2022-10-23T19:06:39.069Z,98.32
2022-10-23T19:08:57.326Z,97.90
2022-10-23T19:11:14.369Z,99.08
2022-10-23T19:13:34.160Z,98.73
2022-10-23T19:15:53.807Z,97.71
2022-10-23T19:18:11.001Z,98.60
2022-10-23T19:22:50.612Z,97.94
2022-10-23T19:25:07.596Z,98.84
2022-10-23T19:27:24.869Z,99.66
2022-10-23T19:29:42.269Z,98.16
2022-10-23T19:31:59.165Z,97.80
2022-10-23T19:34:17.172Z,98.62
2022-10-23T19:36:35.442Z,98.18
2022-10-23T19:38:52.722Z,98.60
2022-10-23T19:41:10.955Z,99.01
2022-10-23T19:43:27.925Z,98.38
2022-10-23T19:45:44.936Z,99.47
2022-10-23T19:48:02.137Z,99.70
2022-10-23T19:50:20.410Z,98.83
2022-10-23T19:52:37.353Z,99.59
2022-10-23T19:54:54.290Z,98.63
2022-10-23T19:57:11.224Z,98.78
2022-10-23T19:59:28.491Z,99.10
2022-10-23T20:01:47.978Z,99.10
2022-10-23T20:04:06.438Z,98.99
2022-10-23T20:06:23.773Z,98.23
2022-10-23T20:08:40.766Z,98.33
2022-10-23T20:13:20.634Z,98.93
2022-10-23T20:15:39.094Z,98.21
2022-10-23T20:17:55.964Z,97.85
2022-10-23T20:20:12.948Z,98.46
2022-10-23T20:22:33.373Z,98.94
2022-10-23T20:24:50.663Z,98.47
2022-10-23T20:27:07.907Z,98.75
2022-10-23T20:29:24.862Z,98.11
2022-10-23T20:31:41.699Z,97.07
2022-10-23T20:33:58.634Z,97.05
2022-10-23T20:36:15.887Z,97.86
2022-10-23T20:38:33.134Z,98.26
2022-10-23T20:40:50.156Z,96.85
2022-10-23T20:43:07.302Z,96.71
2022-10-23T20:45:24.330Z,98.28
2022-10-23T20:47:41.461Z,97.23
2022-10-23T20:49:58.556Z,96.70
2022-10-23T20:52:15.603Z,96.16
2022-10-23T20:54:32.597Z,95.79
2022-10-23T20:56:49.869Z,95.97
2022-10-23T20:59:08.103Z,97.79
2022-10-23T21:01:25.069Z,95.95
2022-10-23T21:03:42.356Z,96.22
2022-10-23T21:05:59.422Z,97.72
2022-10-23T21:08:16.339Z,96.44
2022-10-23T21:10:34.157Z,95.90
2022-10-23T21:12:51.161Z,97.61
2022-10-23T21:15:08.522Z,95.79
2022-10-23T21:17:25.540Z,96.77
2022-10-23T21:19:42.618Z,97.17
2022-10-23T21:21:59.635Z,97.46
2022-10-23T21:24:16.668Z,98.31
2022-10-23T21:26:34.113Z,98.53
2022-10-23T21:28:56.367Z,98.77
2022-10-23T21:31:28.401Z,97.96
2022-10-23T21:33:45.651Z,96.50
2022-10-23T21:36:13.665Z,98.18
2022-10-23T21:38:31.428Z,96.86
2022-10-23T21:40:48.375Z,98.62
2022-10-23T21:43:07.025Z,97.04
2022-10-23T21:45:27.647Z,98.13
2022-10-23T21:47:45.092Z,96.98
2022-10-23T21:50:02.277Z,98.00
2022-10-23T21:52:19.901Z,98.43
2022-10-23T21:54:39.682Z,98.03
2022-10-23T21:56:56.890Z,98.24
2022-10-23T21:59:16.923Z,97.55
2022-10-23T22:01:35.388Z,98.42
2022-10-23T22:03:52.767Z,99.22
2022-10-23T22:06:10.173Z,97.77
2022-10-23T22:08:29.827Z,97.99
2022-10-23T22:10:47.669Z,99.23
2022-10-23T22:13:07.108Z,98.47
2022-10-23T22:15:24.077Z,98.57
2022-10-23T22:17:41.480Z,99.34
2022-10-23T22:19:59.903Z,97.54
2022-10-23T22:22:16.890Z,97.76
2022-10-23T22:24:35.262Z,98.49
2022-10-23T22:26:52.174Z,99.85
2022-10-23T22:29:09.834Z,98.80
2022-10-23T22:31:29.263Z,97.79
2022-10-23T22:33:46.557Z,99.24
2022-10-23T22:36:03.799Z,99.47
2022-10-23T22:38:20.743Z,99.30
2022-10-23T22:40:37.863Z,98.04
2022-10-23T22:42:55.010Z,100.00
2022-10-23T22:45:12.029Z,100.00
2022-10-23T22:47:28.961Z,99.99
2022-10-23T22:49:45.943Z,99.98
2022-10-23T22:52:02.851Z,100.00
2022-10-23T22:54:20.584Z,100.00
2022-10-23T22:56:37.934Z,100.00
2022-10-23T22:58:55.903Z,100.00
2022-10-23T23:01:12.879Z,98.86
2022-10-23T23:03:29.950Z,100.00
2022-10-23T23:05:47.297Z,100.00
2022-10-23T23:08:04.760Z,99.27
2022-10-23T23:10:22.687Z,99.33
2022-10-23T23:12:40.033Z,99.14
2022-10-23T23:14:57.371Z,99.05
2022-10-23T23:17:14.408Z,99.89
2022-10-23T23:19:31.421Z,100.00
2022-10-23T23:21:48.665Z,99.79
2022-10-23T23:24:06.095Z,100.00
2022-10-23T23:26:23.390Z,100.00
2022-10-23T23:28:41.303Z,100.00
2022-10-23T23:30:58.662Z,100.00
2022-10-23T23:33:16.143Z,100.00
2022-10-23T23:35:34.365Z,99.48
2022-10-23T23:37:51.434Z,100.00
2022-10-23T23:40:08.369Z,100.00
2022-10-23T23:42:25.426Z,100.00
2022-10-23T23:44:50.410Z,99.43
2022-10-23T23:47:19.750Z,100.00
2022-10-23T23:49:37.074Z,99.51
2022-10-23T23:51:54.069Z,99.45
2022-10-23T23:54:11.139Z,100.00
2022-10-23T23:56:28.355Z,100.00
2022-10-23T23:58:46.340Z,100.00
